Decoded Metar for PAMO (MOUNTAIN VILLAGE in AK, USA) (IATA:MOU) | Meteo·Mobile Aviation Weather
aviador You're here:

PAMO Decoded Metar

MOUNTAIN VILLAGE in AK, USA
Report Time2019-03-23 08:02:00
UTC Time2019-03-23 08:24:25
Flight Rules vfr VFR
Wind100° at 12 kt
W.Decomp.*RWY 02: 4.9 kt HW 11.0 kt RCW
W.Rank100° ranks 20
Current wind is above 100° avg. (11.5)
Visibility9999 m
Phenomena:N/A
Clouds:N/A
Expected CloudBase > 1,600 ft AGL from Temp-Dew spread
CeilingNone
Temp03°C (ISA -11)
Dew Point-1°C (75% RH)
AAT-3.4°C
QNH995 hPa
Density Alt-338 ft
Elevation338 ft
Report Wrong Elevation
Raw Report
PAMO 230802Z AUTO 10012KT 10SM CLR 03/M01 A2939 RMK AO2 SLP956
T00281011 400280022=

Extra information for PAMO:More info

Metar Taf Metar & Taf Last 4 Metars F.Rules Stats Wind Profile Meteogram Temp Stats Airport Information Weather charts Add Link Nearby VenuesMetar ALERT Operation Metar Decoded Social comments

AIRNAV info for PAMO